createdAt,value
2019-05-06T00:01:29.411Z,10.90
2019-05-06T00:04:01.077Z,9.13
2019-05-06T00:06:34.632Z,12.33
2019-05-06T00:09:07.113Z,9.00
2019-05-06T00:11:39.007Z,13.77
2019-05-06T00:14:10.272Z,11.70
2019-05-06T00:16:43.859Z,9.77
2019-05-06T00:19:14.827Z,13.73
2019-05-06T00:21:46.083Z,10.73
2019-05-06T00:24:17.273Z,9.93
2019-05-06T00:27:08.513Z,10.57
2019-05-06T00:29:40.197Z,10.53
2019-05-06T00:32:11.521Z,15.10
2019-05-06T00:34:43.606Z,12.33
2019-05-06T00:37:14.948Z,12.73
2019-05-06T00:40:14.152Z,12.70
2019-05-06T00:42:54.220Z,10.07
2019-05-06T00:45:25.627Z,12.53
2019-05-06T00:47:57.031Z,14.57
2019-05-06T00:50:28.272Z,11.57
2019-05-06T00:53:01.299Z,12.07
2019-05-06T00:55:33.792Z,14.00
2019-05-06T00:58:05.165Z,9.50
2019-05-06T01:00:38.558Z,12.47
2019-05-06T01:03:10.172Z,11.10
2019-05-06T01:05:41.778Z,11.47
2019-05-06T01:08:14.155Z,13.23
2019-05-06T01:10:45.515Z,15.47
2019-05-06T01:13:24.166Z,10.93
2019-05-06T01:15:55.505Z,15.07
2019-05-06T01:18:26.756Z,13.67
2019-05-06T01:21:10.145Z,15.87
2019-05-06T01:23:44.469Z,13.17
2019-05-06T01:26:16.866Z,13.13
2019-05-06T01:28:48.208Z,12.70
2019-05-06T01:31:19.528Z,12.57
2019-05-06T01:33:50.810Z,15.33
2019-05-06T01:36:22.007Z,14.27
2019-05-06T01:39:18.019Z,10.47
2019-05-06T01:41:57.844Z,15.30
2019-05-06T01:44:29.014Z,11.60
2019-05-06T01:47:00.253Z,15.40
2019-05-06T01:49:33.864Z,14.33
2019-05-06T01:52:04.972Z,14.30
2019-05-06T01:54:36.213Z,16.53
2019-05-06T01:57:07.695Z,16.37
2019-05-06T01:59:38.885Z,12.60
2019-05-06T02:02:10.157Z,11.97
2019-05-06T02:04:41.324Z,15.03
2019-05-06T02:07:14.429Z,13.90
2019-05-06T02:09:45.793Z,15.10
2019-05-06T02:12:16.883Z,15.13
2019-05-06T02:14:48.605Z,12.13
2019-05-06T02:17:19.893Z,13.00
2019-05-06T02:19:51.500Z,14.70
2019-05-06T02:22:53.901Z,11.23
2019-05-06T02:25:37.026Z,12.43
2019-05-06T02:28:08.507Z,12.50
2019-05-06T02:30:54.965Z,12.00
2019-05-06T02:33:40.647Z,14.80
2019-05-06T02:36:34.503Z,15.20
2019-05-06T02:39:07.472Z,17.47
2019-05-06T02:41:38.790Z,15.40
2019-05-06T02:44:13.505Z,12.77
2019-05-06T02:46:45.092Z,13.80
2019-05-06T02:49:29.354Z,14.70
2019-05-06T02:52:03.010Z,14.47
2019-05-06T02:54:34.436Z,14.50
2019-05-06T02:57:06.503Z,14.43
2019-05-06T02:59:37.670Z,13.60
2019-05-06T03:02:08.971Z,14.33
2019-05-06T03:04:40.041Z,16.03
2019-05-06T03:07:14.219Z,14.63
2019-05-06T03:09:44.689Z,14.90
2019-05-06T03:12:15.932Z,14.20
2019-05-06T03:14:47.794Z,16.90
2019-05-06T03:17:19.324Z,13.77
2019-05-06T03:19:52.821Z,19.73
2019-05-06T03:22:35.303Z,13.10
2019-05-06T03:25:13.304Z,14.23
2019-05-06T03:27:47.025Z,18.73
2019-05-06T03:30:17.585Z,16.80
2019-05-06T03:33:23.319Z,13.00
2019-05-06T03:35:36.489Z,16.97
2019-05-06T03:37:56.241Z,17.07
2019-05-06T03:40:27.491Z,20.20
2019-05-06T03:42:58.850Z,15.77
2019-05-06T03:45:38.064Z,14.10
2019-05-06T03:48:17.090Z,13.20
2019-05-06T03:50:48.365Z,15.70
2019-05-06T03:53:19.699Z,13.40
2019-05-06T03:55:54.203Z,13.93
2019-05-06T03:58:27.495Z,19.07
2019-05-06T04:00:59.002Z,17.07
2019-05-06T04:03:43.944Z,15.13
2019-05-06T04:06:04.874Z,15.33
2019-05-06T04:08:37.117Z,21.60
2019-05-06T04:11:10.410Z,15.10
2019-05-06T04:13:45.193Z,17.40
2019-05-06T04:16:23.075Z,17.73
2019-05-06T04:19:04.085Z,18.07
2019-05-06T04:21:48.246Z,19.97
2019-05-06T04:24:30.161Z,15.87
2019-05-06T04:27:42.767Z,17.50
2019-05-06T04:30:13.742Z,19.83
2019-05-06T04:32:45.049Z,16.23
2019-05-06T04:35:18.053Z,15.63
2019-05-06T04:37:49.592Z,18.93
2019-05-06T04:40:23.797Z,18.60
2019-05-06T04:42:55.336Z,17.73
2019-05-06T04:45:26.580Z,19.57
2019-05-06T04:47:57.815Z,19.20
2019-05-06T04:50:29.002Z,22.53
2019-05-06T04:53:05.711Z,14.03
2019-05-06T04:55:37.813Z,16.37
2019-05-06T04:58:09.146Z,19.17
2019-05-06T05:00:44.089Z,16.93
2019-05-06T05:03:14.354Z,17.30
2019-05-06T05:05:46.098Z,16.17
2019-05-06T05:08:17.408Z,16.00
2019-05-06T05:11:03.543Z,20.37
2019-05-06T05:13:48.121Z,18.83
2019-05-06T05:16:26.247Z,14.43
2019-05-06T05:19:02.636Z,15.43
2019-05-06T05:21:34.359Z,20.60
2019-05-06T05:24:05.681Z,17.07
2019-05-06T05:26:37.382Z,12.77
2019-05-06T05:29:08.610Z,23.00
2019-05-06T05:31:40.017Z,25.37
2019-05-06T05:34:12.722Z,15.13
2019-05-06T05:36:44.307Z,15.87
2019-05-06T05:39:15.752Z,14.70
2019-05-06T05:41:47.079Z,15.00
2019-05-06T05:44:23.062Z,15.77
2019-05-06T05:46:54.386Z,17.13
2019-05-06T05:49:45.028Z,21.93
2019-05-06T05:52:16.366Z,16.90
2019-05-06T05:54:47.638Z,18.07
2019-05-06T05:57:19.059Z,14.77
2019-05-06T05:59:52.726Z,15.97
2019-05-06T06:02:23.740Z,13.87
2019-05-06T06:04:57.600Z,18.70
2019-05-06T06:07:28.190Z,16.07
2019-05-06T06:10:06.818Z,14.70
2019-05-06T06:12:38.141Z,12.63
2019-05-06T06:15:28.504Z,14.67
2019-05-06T06:18:22.608Z,13.00
2019-05-06T06:21:22.019Z,12.17
2019-05-06T06:23:50.280Z,16.33
2019-05-06T06:26:22.710Z,16.07
2019-05-06T06:28:54.681Z,14.97
2019-05-06T06:31:33.226Z,19.37
2019-05-06T06:34:12.976Z,13.57
2019-05-06T06:36:57.525Z,14.10
2019-05-06T06:39:32.776Z,11.33
2019-05-06T06:42:04.359Z,15.13
2019-05-06T06:44:36.543Z,14.80
2019-05-06T06:47:07.885Z,14.00
2019-05-06T06:49:39.212Z,11.27
2019-05-06T06:52:12.343Z,13.47
2019-05-06T06:54:43.921Z,12.80
2019-05-06T06:57:31.087Z,11.77
2019-05-06T07:00:07.034Z,9.53
2019-05-06T07:02:43.526Z,11.60
2019-05-06T07:05:28.600Z,10.97
2019-05-06T07:07:59.433Z,14.07
2019-05-06T07:10:46.042Z,11.57
2019-05-06T07:13:18.012Z,11.93
2019-05-06T07:15:49.347Z,10.70
2019-05-06T07:18:22.600Z,13.97
2019-05-06T07:21:06.233Z,16.07
2019-05-06T07:23:38.405Z,10.13
2019-05-06T07:26:12.118Z,13.53
2019-05-06T07:28:43.850Z,13.27
2019-05-06T07:31:22.330Z,12.73
2019-05-06T07:33:48.183Z,10.07
2019-05-06T07:36:20.248Z,8.63
2019-05-06T07:38:52.869Z,11.20
2019-05-06T07:41:32.855Z,13.90
2019-05-06T07:44:13.115Z,8.90
2019-05-06T07:46:53.339Z,10.40
2019-05-06T07:49:24.974Z,8.87
2019-05-06T07:51:56.225Z,11.40
2019-05-06T07:54:27.734Z,7.90
2019-05-06T07:56:59.065Z,10.20
2019-05-06T07:59:30.357Z,11.17
2019-05-06T08:02:02.361Z,15.53
2019-05-06T08:04:33.810Z,11.73
2019-05-06T08:07:05.284Z,12.23
2019-05-06T08:09:36.592Z,11.13
2019-05-06T08:12:07.923Z,11.10
2019-05-06T08:14:43.442Z,10.40
2019-05-06T08:17:27.091Z,12.17
2019-05-06T08:19:58.485Z,11.80
2019-05-06T08:22:47.844Z,8.30
2019-05-06T08:25:19.169Z,9.17
2019-05-06T08:27:50.571Z,11.47
2019-05-06T08:30:23.057Z,10.60
2019-05-06T08:32:54.435Z,9.73
2019-05-06T08:35:25.675Z,14.03
2019-05-06T08:37:56.996Z,8.50
2019-05-06T08:40:28.363Z,10.33
2019-05-06T08:43:02.051Z,8.63
2019-05-06T08:45:32.830Z,12.40
2019-05-06T08:48:04.584Z,8.10
2019-05-06T08:51:02.713Z,9.13
2019-05-06T08:53:44.581Z,9.67
2019-05-06T08:56:22.047Z,4.77
2019-05-06T08:58:53.426Z,6.77
2019-05-06T09:01:32.522Z,7.10
2019-05-06T09:04:09.450Z,6.60
2019-05-06T09:06:37.283Z,7.67
2019-05-06T09:09:12.803Z,10.00
2019-05-06T09:11:43.515Z,6.90
2019-05-06T09:14:14.857Z,8.30
2019-05-06T09:16:46.100Z,8.37
2019-05-06T09:19:18.412Z,15.03
2019-05-06T09:21:49.674Z,7.73
2019-05-06T09:24:22.963Z,10.27
2019-05-06T09:27:02.960Z,8.63
2019-05-06T09:29:45.233Z,7.47
2019-05-06T09:32:22.581Z,7.33
2019-05-06T09:35:03.068Z,5.40
2019-05-06T09:37:34.549Z,9.33
2019-05-06T09:40:06.775Z,7.17
2019-05-06T09:42:38.025Z,5.70
2019-05-06T09:45:12.485Z,4.60
2019-05-06T09:47:55.167Z,5.07
2019-05-06T09:50:45.379Z,5.47
2019-05-06T09:53:23.135Z,4.87
2019-05-06T09:56:33.480Z,6.97
2019-05-06T09:59:04.828Z,7.00
2019-05-06T10:01:36.555Z,7.53
2019-05-06T10:04:08.123Z,5.80
2019-05-06T10:06:55.464Z,7.97
2019-05-06T10:09:16.017Z,7.30
2019-05-06T10:11:46.818Z,7.43
2019-05-06T10:14:18.096Z,9.30
2019-05-06T10:16:52.196Z,5.97
2019-05-06T10:19:23.025Z,7.67
2019-05-06T10:21:54.372Z,7.07
2019-05-06T10:24:25.734Z,7.13
2019-05-06T10:26:59.126Z,9.20
2019-05-06T10:29:43.249Z,6.27
2019-05-06T10:32:26.485Z,9.83
2019-05-06T10:34:57.920Z,7.80
2019-05-06T10:37:37.231Z,6.90
2019-05-06T10:40:18.805Z,7.70
2019-05-06T10:43:02.737Z,9.53
2019-05-06T10:45:34.371Z,8.00
2019-05-06T10:48:05.726Z,8.13
2019-05-06T10:50:42.937Z,6.53
2019-05-06T10:53:17.503Z,10.63
2019-05-06T10:55:53.555Z,10.83
2019-05-06T10:58:24.874Z,9.90
2019-05-06T11:01:12.816Z,10.40
2019-05-06T11:03:44.207Z,8.83
2019-05-06T11:06:15.571Z,9.77
2019-05-06T11:08:46.912Z,8.43
2019-05-06T11:11:31.554Z,10.70
2019-05-06T11:13:52.225Z,13.80
2019-05-06T11:16:23.935Z,10.10
2019-05-06T11:18:55.082Z,8.30
2019-05-06T11:21:26.378Z,9.27
2019-05-06T11:23:57.945Z,11.60
2019-05-06T11:26:29.388Z,10.23
2019-05-06T11:29:05.622Z,14.37
2019-05-06T11:31:57.401Z,10.87
2019-05-06T11:35:05.783Z,17.33
2019-05-06T11:37:59.081Z,9.27
2019-05-06T11:40:32.836Z,12.23
2019-05-06T11:43:03.172Z,10.40
2019-05-06T11:45:34.411Z,10.97
2019-05-06T11:48:05.743Z,12.57
2019-05-06T11:50:37.634Z,9.20
2019-05-06T11:53:09.498Z,10.03
2019-05-06T11:55:40.811Z,10.50
2019-05-06T11:58:29.834Z,9.83
2019-05-06T12:01:04.582Z,12.10
2019-05-06T12:03:35.710Z,12.27
2019-05-06T12:06:07.278Z,11.10
2019-05-06T12:08:38.921Z,9.43
2019-05-06T12:11:12.620Z,10.13
2019-05-06T12:13:43.709Z,11.93
2019-05-06T12:16:15.053Z,10.17
2019-05-06T12:18:46.356Z,9.83
2019-05-06T12:21:19.332Z,10.43
2019-05-06T12:24:12.107Z,12.63
2019-05-06T12:26:43.134Z,10.77
2019-05-06T12:29:14.538Z,9.50
2019-05-06T12:31:49.396Z,11.50
2019-05-06T12:34:20.981Z,11.63
2019-05-06T12:36:55.977Z,21.10
2019-05-06T12:39:29.916Z,11.70
2019-05-06T12:42:19.259Z,9.50
2019-05-06T12:44:57.326Z,11.37
2019-05-06T12:47:35.041Z,11.10
2019-05-06T12:50:07.127Z,13.33
2019-05-06T12:52:38.813Z,10.70
2019-05-06T12:55:18.364Z,9.87
2019-05-06T12:57:43.782Z,11.70
2019-05-06T13:00:15.819Z,13.23
2019-05-06T13:02:46.954Z,12.53
2019-05-06T13:05:19.000Z,16.50
2019-05-06T13:07:52.727Z,14.07
2019-05-06T13:10:24.246Z,12.63
2019-05-06T13:13:00.475Z,13.20
2019-05-06T13:15:32.448Z,11.17
2019-05-06T13:18:06.986Z,12.70
2019-05-06T13:20:37.911Z,10.33
2019-05-06T13:23:20.871Z,15.53
2019-05-06T13:25:47.825Z,11.97
2019-05-06T13:28:22.403Z,11.47
2019-05-06T13:30:54.233Z,11.10
2019-05-06T13:33:34.152Z,12.27
2019-05-06T13:36:04.874Z,9.53
2019-05-06T13:38:36.124Z,10.50
2019-05-06T13:41:07.416Z,9.33
2019-05-06T13:43:43.766Z,10.47
2019-05-06T13:46:24.263Z,14.67
2019-05-06T13:49:13.614Z,11.37
2019-05-06T13:51:52.369Z,11.83
2019-05-06T13:54:23.879Z,10.10
2019-05-06T13:56:55.171Z,14.73
2019-05-06T13:59:30.248Z,9.77
2019-05-06T14:02:16.893Z,11.33
2019-05-06T14:04:48.592Z,10.07
2019-05-06T14:07:24.322Z,10.87
2019-05-06T14:09:56.721Z,12.07
2019-05-06T14:12:28.201Z,13.30
2019-05-06T14:15:18.951Z,11.90
2019-05-06T14:17:52.462Z,9.07
2019-05-06T14:20:23.488Z,9.67
2019-05-06T14:22:54.938Z,13.00
2019-05-06T14:25:48.197Z,8.07
2019-05-06T14:28:28.578Z,10.67
2019-05-06T14:31:06.298Z,10.17
2019-05-06T14:33:37.776Z,8.07
2019-05-06T14:36:09.844Z,10.10
2019-05-06T14:38:43.085Z,10.67
2019-05-06T14:41:18.613Z,8.07
2019-05-06T14:43:50.651Z,10.73
2019-05-06T14:46:22.810Z,5.87
2019-05-06T14:48:54.802Z,10.63
2019-05-06T14:51:26.031Z,10.33
2019-05-06T14:53:57.370Z,10.37
2019-05-06T14:56:53.263Z,10.03
2019-05-06T14:59:23.921Z,11.47
2019-05-06T15:01:55.093Z,9.67
2019-05-06T15:04:26.677Z,9.53
2019-05-06T15:06:57.919Z,12.97
2019-05-06T15:09:29.378Z,7.83
2019-05-06T15:12:02.318Z,7.60
2019-05-06T15:14:33.897Z,11.20
2019-05-06T15:17:05.174Z,9.43
2019-05-06T15:19:36.277Z,8.07
2019-05-06T15:22:07.894Z,10.77
2019-05-06T15:24:39.242Z,12.30
2019-05-06T15:27:11.994Z,7.37
2019-05-06T15:29:48.448Z,8.80
2019-05-06T15:32:23.394Z,10.37
2019-05-06T15:35:02.515Z,12.37
2019-05-06T15:37:42.285Z,10.23
2019-05-06T15:40:13.783Z,6.00
2019-05-06T15:42:45.149Z,8.30
2019-05-06T15:45:17.146Z,9.27
2019-05-06T15:47:48.353Z,10.77
2019-05-06T15:50:22.840Z,8.30
2019-05-06T15:52:54.014Z,10.20
2019-05-06T15:55:25.419Z,8.97
2019-05-06T15:57:56.622Z,8.27
2019-05-06T16:00:29.659Z,9.43
2019-05-06T16:03:00.960Z,7.60
2019-05-06T16:05:34.372Z,8.07
2019-05-06T16:08:07.403Z,9.90
2019-05-06T16:10:51.862Z,11.47
2019-05-06T16:13:12.876Z,9.43
2019-05-06T16:15:44.490Z,9.00
2019-05-06T16:18:15.932Z,13.27
2019-05-06T16:20:47.513Z,10.43
2019-05-06T16:23:43.595Z,10.17
2019-05-06T16:26:15.005Z,14.47
2019-05-06T16:28:49.694Z,10.00
2019-05-06T16:31:22.351Z,10.90
2019-05-06T16:33:54.082Z,11.23
2019-05-06T16:36:25.253Z,11.03
2019-05-06T16:38:56.408Z,11.33
2019-05-06T16:41:27.899Z,10.33
2019-05-06T16:43:59.277Z,10.87
2019-05-06T16:46:33.941Z,10.10
2019-05-06T16:49:03.379Z,10.77
2019-05-06T16:51:34.668Z,13.20
2019-05-06T16:54:06.011Z,12.27
2019-05-06T16:56:56.194Z,10.67
2019-05-06T16:59:27.817Z,10.87
2019-05-06T17:02:01.220Z,9.90
2019-05-06T17:04:42.118Z,9.33
2019-05-06T17:07:13.411Z,14.30
2019-05-06T17:09:45.075Z,9.90
2019-05-06T17:12:16.242Z,13.00
2019-05-06T17:14:47.898Z,11.70
2019-05-06T17:17:19.220Z,12.27
2019-05-06T17:19:52.772Z,15.67
2019-05-06T17:22:23.391Z,11.23
2019-05-06T17:24:54.548Z,10.33
2019-05-06T17:27:25.969Z,13.37
2019-05-06T17:30:07.108Z,10.90
2019-05-06T17:32:44.465Z,9.87
2019-05-06T17:35:17.910Z,8.47
2019-05-06T17:37:58.218Z,9.27
2019-05-06T17:40:29.576Z,9.77
2019-05-06T17:43:02.555Z,13.40
2019-05-06T17:45:57.993Z,10.23
2019-05-06T17:48:32.027Z,10.87
2019-05-06T17:51:13.047Z,12.83
2019-05-06T17:53:46.453Z,9.73
2019-05-06T17:56:17.745Z,9.07
2019-05-06T17:58:48.995Z,11.97
2019-05-06T18:01:24.607Z,11.93
2019-05-06T18:03:56.420Z,10.23
2019-05-06T18:06:27.743Z,14.43
2019-05-06T18:08:59.282Z,9.17
2019-05-06T18:11:33.009Z,9.37
2019-05-06T18:14:04.229Z,11.43
2019-05-06T18:16:35.744Z,9.30
2019-05-06T18:19:07.090Z,8.93
2019-05-06T18:21:38.634Z,9.47
2019-05-06T18:24:12.190Z,13.10
2019-05-06T18:26:42.739Z,10.53
2019-05-06T18:29:14.265Z,10.13
2019-05-06T18:31:45.922Z,13.03
2019-05-06T18:34:17.365Z,11.67
2019-05-06T18:36:48.850Z,9.90
2019-05-06T18:39:22.080Z,9.60
2019-05-06T18:41:53.321Z,11.90
2019-05-06T18:44:24.531Z,10.73
2019-05-06T18:46:55.782Z,13.27
2019-05-06T18:49:27.552Z,14.80
2019-05-06T18:51:59.197Z,11.03
2019-05-06T18:54:33.172Z,13.90
2019-05-06T18:57:04.890Z,13.93
2019-05-06T18:59:37.128Z,12.07
2019-05-06T19:02:08.911Z,13.57
2019-05-06T19:04:57.148Z,11.00
2019-05-06T19:07:28.702Z,13.27
2019-05-06T19:10:24.878Z,11.67
2019-05-06T19:12:56.243Z,10.83
2019-05-06T19:15:29.083Z,13.17
2019-05-06T19:18:02.313Z,10.37
2019-05-06T19:20:33.989Z,14.60
2019-05-06T19:23:05.424Z,11.53
2019-05-06T19:25:36.770Z,14.63
2019-05-06T19:28:08.015Z,12.43
2019-05-06T19:30:40.024Z,13.37
2019-05-06T19:33:12.338Z,14.20
2019-05-06T19:35:44.078Z,11.07
2019-05-06T19:38:15.616Z,9.87
2019-05-06T19:40:46.704Z,12.00
2019-05-06T19:43:18.148Z,14.83
2019-05-06T19:45:49.411Z,12.20
2019-05-06T19:48:22.200Z,12.50
2019-05-06T19:50:53.539Z,13.63
2019-05-06T19:53:25.026Z,11.20
2019-05-06T19:55:56.188Z,11.83
2019-05-06T19:58:27.376Z,13.70
2019-05-06T20:00:59.049Z,15.43
2019-05-06T20:03:32.621Z,15.43
2019-05-06T20:06:34.533Z,15.27
2019-05-06T20:09:37.483Z,14.93
2019-05-06T20:12:13.968Z,14.97
2019-05-06T20:14:45.337Z,10.77
2019-05-06T20:17:16.841Z,14.23
2019-05-06T20:19:48.036Z,11.67
2019-05-06T20:22:19.127Z,15.00
2019-05-06T20:24:52.080Z,10.97
2019-05-06T20:27:23.246Z,13.33
2019-05-06T20:29:54.381Z,14.90
2019-05-06T20:32:25.504Z,17.57
2019-05-06T20:34:56.650Z,19.03
2019-05-06T20:37:27.760Z,17.57
2019-05-06T20:39:58.947Z,16.63
2019-05-06T20:42:30.171Z,13.17
2019-05-06T20:45:02.080Z,15.50
2019-05-06T20:47:33.395Z,15.13
2019-05-06T20:50:05.261Z,12.77
2019-05-06T20:52:36.623Z,13.93
2019-05-06T20:55:12.659Z,14.03
2019-05-06T20:57:42.298Z,15.43
2019-05-06T21:00:16.148Z,15.53
2019-05-06T21:02:47.342Z,14.83
2019-05-06T21:05:18.600Z,15.43
2019-05-06T21:07:52.408Z,16.07
2019-05-06T21:10:23.225Z,15.50
2019-05-06T21:12:54.566Z,12.67
2019-05-06T21:15:26.237Z,12.33
2019-05-06T21:18:01.242Z,14.33
2019-05-06T21:20:33.062Z,14.20
2019-05-06T21:23:04.466Z,14.43
2019-05-06T21:25:36.129Z,14.50
2019-05-06T21:28:07.378Z,11.90
2019-05-06T21:30:38.969Z,14.27
2019-05-06T21:33:12.242Z,15.33
2019-05-06T21:35:43.281Z,15.50
2019-05-06T21:38:14.551Z,14.87
2019-05-06T21:40:45.796Z,12.93
2019-05-06T21:43:16.983Z,13.43
2019-05-06T21:45:48.191Z,15.93
2019-05-06T21:48:19.388Z,14.00
2019-05-06T21:50:52.193Z,14.27
2019-05-06T21:53:23.796Z,13.50
2019-05-06T21:55:55.024Z,13.47
2019-05-06T21:58:26.215Z,12.00
2019-05-06T22:01:06.215Z,13.57
2019-05-06T22:03:37.434Z,16.33
2019-05-06T22:06:09.097Z,11.47
2019-05-06T22:08:42.241Z,19.03
2019-05-06T22:11:13.643Z,13.77
2019-05-06T22:13:57.882Z,14.07
2019-05-06T22:16:18.207Z,14.90
2019-05-06T22:18:49.347Z,13.03
2019-05-06T22:21:25.146Z,11.50
2019-05-06T22:23:58.159Z,10.80
2019-05-06T22:26:32.289Z,12.10
2019-05-06T22:29:03.070Z,12.63
2019-05-06T22:31:34.309Z,13.77
2019-05-06T22:34:05.508Z,15.10
2019-05-06T22:36:37.482Z,13.63
2019-05-06T22:39:08.619Z,14.27
2019-05-06T22:41:39.823Z,14.13
2019-05-06T22:44:14.020Z,14.40
2019-05-06T22:46:43.939Z,12.23
2019-05-06T22:49:15.038Z,16.63
2019-05-06T22:51:46.585Z,14.37
2019-05-06T22:54:18.153Z,16.03
2019-05-06T22:56:49.681Z,13.50
2019-05-06T22:59:24.405Z,14.27
2019-05-06T23:02:04.183Z,11.57
2019-05-06T23:04:36.152Z,14.00
2019-05-06T23:07:07.808Z,13.17
2019-05-06T23:09:39.118Z,12.23
2019-05-06T23:12:12.314Z,17.80
2019-05-06T23:14:43.626Z,14.67
2019-05-06T23:17:14.889Z,13.40
2019-05-06T23:19:46.792Z,14.03
2019-05-06T23:22:18.137Z,16.03
2019-05-06T23:24:49.554Z,14.13
2019-05-06T23:27:23.129Z,15.27
2019-05-06T23:29:53.523Z,14.23
2019-05-06T23:32:24.873Z,20.83
2019-05-06T23:34:55.964Z,21.87
2019-05-06T23:37:25.189Z,16.10
2019-05-06T23:40:52.169Z,18.13
2019-05-06T23:44:17.216Z,14.50
2019-05-06T23:47:42.569Z,16.20
2019-05-06T23:51:08.194Z,18.30
2019-05-06T23:54:33.841Z,14.60
2019-05-06T23:57:03.129Z,14.30
2019-05-06T23:59:34.677Z,14.07
